createdAt,value
2019-02-22T01:01:31.812Z,20.00
2019-02-22T01:06:33.152Z,19.63
2019-02-22T01:11:35.205Z,20.10
2019-02-22T01:16:36.551Z,18.93
2019-02-22T01:21:38.826Z,18.37
2019-02-22T01:26:40.172Z,18.17
2019-02-22T02:35:00.317Z,23.43
2019-02-22T02:40:01.647Z,20.80
2019-02-22T02:45:02.943Z,26.20
2019-02-22T02:50:04.348Z,24.57
2019-02-22T02:55:06.376Z,28.20
2019-02-22T03:00:07.723Z,23.60
2019-02-22T04:02:11.400Z,24.03
2019-02-22T04:07:12.700Z,25.30
2019-02-22T04:12:13.995Z,26.20
2019-02-22T04:17:32.260Z,28.00
2019-02-22T04:22:33.632Z,24.37
2019-02-22T04:27:35.056Z,20.83
2019-02-22T05:35:55.077Z,23.37
2019-02-22T05:40:57.098Z,28.77
2019-02-22T05:45:58.403Z,26.23
2019-02-22T05:50:59.809Z,30.30
2019-02-22T05:56:01.229Z,31.13
2019-02-22T07:04:26.735Z,40.27
2019-02-22T07:09:28.099Z,43.73
2019-02-22T07:14:29.452Z,33.63
2019-02-22T07:19:30.817Z,38.40
2019-02-22T07:24:32.168Z,35.70
2019-02-22T07:29:34.239Z,33.60
2019-02-22T08:31:37.366Z,34.20
2019-02-22T08:36:38.678Z,42.63
2019-02-22T08:41:39.988Z,36.23
2019-02-22T08:46:41.298Z,36.13
2019-02-22T08:51:42.621Z,34.87
2019-02-22T08:56:43.929Z,36.50
2019-02-22T10:05:07.835Z,38.07
2019-02-22T10:10:09.603Z,36.77
2019-02-22T10:15:10.952Z,39.07
2019-02-22T10:20:12.989Z,32.43
2019-02-22T10:25:14.324Z,34.40
2019-02-22T10:30:15.628Z,36.93
2019-02-22T11:32:19.072Z,24.57
2019-02-22T11:37:20.313Z,23.57
2019-02-22T11:42:21.655Z,21.37
2019-02-22T11:47:22.989Z,25.50
2019-02-22T11:52:24.315Z,24.07
2019-02-22T11:57:25.627Z,22.77
2019-02-22T13:05:51.402Z,16.37
2019-02-22T13:10:52.732Z,15.83
2019-02-22T13:15:54.104Z,20.93
2019-02-22T13:20:55.376Z,16.37
2019-02-22T13:25:56.732Z,15.57
2019-02-22T14:34:21.062Z,12.60
2019-02-22T14:39:22.333Z,12.70
2019-02-22T14:44:23.641Z,12.30
2019-02-22T14:49:24.942Z,14.13
2019-02-22T14:54:27.251Z,12.33
2019-02-22T14:59:28.599Z,11.93
2019-02-22T16:01:32.864Z,10.37
2019-02-22T16:06:34.914Z,10.73
2019-02-22T16:11:36.244Z,11.57
2019-02-22T16:16:37.521Z,9.57
2019-02-22T16:21:38.820Z,6.17
2019-02-22T16:26:40.114Z,5.03
2019-02-22T16:31:41.401Z,7.83
2019-02-22T16:36:42.672Z,5.23
2019-02-22T16:41:43.980Z,4.90
2019-02-22T16:46:46.035Z,7.27
2019-02-22T16:51:47.313Z,8.37
2019-02-22T16:56:48.586Z,6.57
2019-02-22T17:01:50.691Z,6.43
2019-02-22T17:06:52.004Z,6.97
2019-02-22T17:11:53.296Z,7.33
2019-02-22T17:22:09.746Z,7.47
2019-02-22T17:27:10.472Z,7.93
2019-02-22T17:32:12.508Z,8.63
2019-02-22T17:37:14.438Z,9.17
2019-02-22T17:42:15.784Z,10.27
2019-02-22T17:47:17.076Z,9.07
2019-02-22T17:52:19.085Z,13.13
2019-02-22T17:57:20.379Z,21.73
2019-02-22T18:02:21.714Z,35.43
2019-02-22T18:07:23.048Z,8.97
2019-02-22T18:12:32.939Z,11.20
2019-02-22T18:17:35.068Z,11.20
2019-02-22T18:22:46.709Z,9.77
2019-02-22T18:27:48.944Z,13.13
2019-02-22T18:32:51.914Z,10.73
2019-02-22T18:37:55.020Z,9.43
2019-02-22T18:42:57.636Z,11.87
2019-02-22T18:48:00.179Z,9.97
2019-02-22T18:53:02.242Z,10.10
2019-02-22T18:58:04.271Z,12.10
2019-02-22T19:03:06.221Z,11.07
2019-02-22T19:08:07.546Z,12.30
2019-02-22T19:13:08.882Z,10.63
2019-02-22T19:18:10.368Z,11.30
2019-02-22T19:23:11.698Z,8.23
2019-02-22T19:28:13.032Z,7.03
2019-02-22T19:33:22.010Z,6.37
2019-02-22T19:38:23.372Z,7.17
2019-02-22T19:43:24.650Z,5.30
2019-02-22T19:48:26.125Z,6.10
2019-02-22T19:53:45.854Z,4.30
2019-02-22T19:58:47.143Z,5.50
2019-02-22T20:03:49.169Z,6.07
2019-02-22T20:08:50.537Z,6.10
2019-02-22T20:13:52.575Z,6.33
2019-02-22T20:18:53.904Z,4.43
2019-02-22T20:23:55.274Z,4.33
2019-02-22T20:28:56.584Z,4.53
2019-02-22T20:33:57.896Z,5.63
2019-02-22T20:38:59.190Z,4.97
2019-02-22T20:44:00.484Z,5.97
2019-02-22T20:49:28.883Z,4.83
2019-02-22T20:54:30.216Z,5.23
2019-02-22T20:59:31.474Z,5.20
2019-02-22T21:04:33.541Z,5.77
2019-02-22T21:09:35.653Z,5.60
2019-02-22T21:14:36.953Z,5.77
2019-02-22T21:19:38.308Z,6.80
2019-02-22T21:24:39.584Z,7.37
2019-02-22T21:29:41.751Z,7.53
2019-02-22T21:34:48.528Z,7.07
2019-02-22T21:39:50.849Z,5.97
2019-02-22T21:44:54.298Z,8.03
2019-02-22T21:49:58.488Z,7.00
2019-02-22T21:55:01.497Z,8.00
2019-02-22T22:00:05.877Z,9.30
2019-02-22T22:05:08.850Z,7.23
2019-02-22T22:10:11.998Z,8.17
2019-02-22T22:15:17.742Z,7.07
2019-02-22T22:20:21.061Z,8.47
2019-02-22T22:25:24.012Z,6.57
2019-02-22T22:30:26.895Z,5.77
2019-02-22T22:35:29.878Z,5.67
2019-02-22T22:40:32.540Z,6.03
2019-02-22T22:45:41.246Z,8.53
2019-02-22T22:50:46.365Z,6.80
2019-02-22T22:55:56.785Z,7.07
2019-02-22T23:32:39.886Z,6.80
2019-02-22T23:37:44.050Z,6.37
2019-02-22T23:42:45.397Z,6.10
2019-02-22T23:47:46.833Z,6.73
2019-02-22T23:52:48.173Z,6.33
2019-02-22T23:57:49.470Z,6.93
